»·PEaware :: URF32 KLAS-L35

URF32 :: KLAS-L35

FLIGHT INFORMATION

Flight Status: Arrived
Operator: Unknown
More flights by this operator :: More flights under this callsign
Pilot: Ryan B. (8502)
Aircraft: PILATUS PC-12 EAGLE
(PC12)
More flights by this aircraft type
Origin: KLAS McCarran Intl
United States
Destination: L35 Big Bear City
United States
More flights between these airports :: More routes between these airports
Route: +GFS HEC
File this flight plan on PilotEdge
Remarks: SURF AIR PC-12
Altitude:
(Current/Filed)
16,000ft
Speed:
(Current/Filed)
250kts
Departed: 29-Jun-16 02:06 PM
Arrived: 29-Jun-16 02:56 PM
Distance/Time
Traveled:
138nm/0:49
Distance/Time
To Go:
Arrived

Flight Plot

Page will automatically refresh every two minutes.

Flight plan parsing failed; only flown route is shown


Map Options




Map Legend


Flown Route
Filed Route
Departure Airport
Arrival Airport
Navaid (VOR, NDB)
Fix

Horizontal Profiles

Position Reports

Time Latitude Longitude Heading Altitude Ground
Speed
29-Jun-16 13:35 36.100140 -115.159615 207 2145ft 0kts
29-Jun-16 13:36 36.100140 -115.159615 207 2145ft 0kts
29-Jun-16 13:37 36.100140 -115.159615 207 2145ft 0kts
29-Jun-16 13:38 36.100140 -115.159615 207 2145ft 0kts
29-Jun-16 13:39 36.100140 -115.159615 207 2145ft 0kts
29-Jun-16 13:40 36.100140 -115.159615 207 2145ft 0kts
29-Jun-16 13:41 36.100140 -115.159615 207 2145ft 0kts
29-Jun-16 13:42 36.100140 -115.159615 207 2145ft 0kts
29-Jun-16 13:43 36.100140 -115.159615 207 2145ft 0kts
29-Jun-16 13:44 36.100140 -115.159615 207 2145ft 0kts
29-Jun-16 13:45 36.100140 -115.159615 207 2145ft 0kts
29-Jun-16 13:46 36.100140 -115.159615 207 2145ft 0kts
29-Jun-16 13:47 36.100140 -115.159615 207 2145ft 0kts
29-Jun-16 13:48 36.100140 -115.159615 207 2145ft 0kts
29-Jun-16 13:49 36.100140 -115.159615 207 2145ft 0kts
29-Jun-16 13:50 36.100140 -115.159615 207 2145ft 0kts
29-Jun-16 13:51 36.100140 -115.159615 207 2145ft 0kts
29-Jun-16 13:52 36.100140 -115.159615 207 2145ft 0kts
29-Jun-16 13:53 36.100140 -115.159615 207 2145ft 0kts
29-Jun-16 13:54 36.100140 -115.159615 207 2145ft 0kts
29-Jun-16 13:55 36.100140 -115.159615 207 2145ft 0kts
29-Jun-16 13:56 36.100140 -115.159615 207 2145ft 0kts
29-Jun-16 13:57 36.100140 -115.159615 207 2145ft 0kts
29-Jun-16 13:58 36.100140 -115.159615 207 2145ft 0kts
29-Jun-16 13:59 36.100140 -115.159615 207 2145ft 0kts
29-Jun-16 14:00 36.099876 -115.159471 115 2145ft 3kts
29-Jun-16 14:01 36.096816 -115.160401 205 2145ft 34kts
29-Jun-16 14:02 36.085273 -115.167015 204 2145ft 51kts
29-Jun-16 14:03 36.077268 -115.171250 181 2145ft 0kts
29-Jun-16 14:04 36.077268 -115.171250 181 2145ft 0kts
29-Jun-16 14:05 36.077268 -115.171250 181 2145ft 0kts
29-Jun-16 14:06 36.076334 -115.153768 88 2317ft 111kts
29-Jun-16 14:07 36.059510 -115.117939 155 3732ft 162kts
29-Jun-16 14:08 36.016139 -115.117594 198 5825ft 165kts
29-Jun-16 14:09 35.969371 -115.128724 192 7809ft 182kts
29-Jun-16 14:10 35.919926 -115.138532 191 9883ft 183kts
29-Jun-16 14:11 35.870739 -115.148781 191 11830ft 184kts
29-Jun-16 14:12 35.819383 -115.154473 183 13608ft 191kts
29-Jun-16 14:13 35.765126 -115.156165 183 15016ft 211kts
29-Jun-16 14:14 35.704680 -115.158170 183 15032ft 256kts
29-Jun-16 14:15 35.641778 -115.160160 183 15025ft 270kts
29-Jun-16 14:16 35.586230 -115.161927 183 15024ft 274kts
29-Jun-16 14:17 35.516050 -115.164156 183 15023ft 276kts
29-Jun-16 14:18 35.449828 -115.187872 216 15460ft 257kts
29-Jun-16 14:19 35.407343 -115.249859 238 16065ft 257kts
29-Jun-16 14:20 35.371283 -115.322448 238 16064ft 262kts
29-Jun-16 14:21 35.334657 -115.396240 238 16063ft 264kts
29-Jun-16 14:22 35.298246 -115.469439 238 16064ft 264kts
29-Jun-16 14:23 35.261306 -115.543566 238 16057ft 264kts
29-Jun-16 14:24 35.223470 -115.619318 238 16056ft 264kts
29-Jun-16 14:25 35.186437 -115.693658 238 16058ft 264kts
29-Jun-16 14:26 35.149081 -115.768382 237 16082ft 264kts
29-Jun-16 14:27 35.111873 -115.842441 237 16098ft 264kts
29-Jun-16 14:28 35.073303 -115.919023 237 16107ft 264kts
29-Jun-16 14:29 35.036069 -115.992731 237 16107ft 264kts
29-Jun-16 14:30 34.998999 -116.065925 237 16107ft 264kts
29-Jun-16 14:31 34.960295 -116.142261 238 16107ft 264kts
29-Jun-16 14:32 34.921742 -116.218176 238 16100ft 264kts
29-Jun-16 14:33 34.883576 -116.293184 238 16083ft 265kts
29-Jun-16 14:34 34.844759 -116.369302 237 16064ft 265kts
29-Jun-16 14:35 34.805873 -116.445290 237 16055ft 265kts
29-Jun-16 14:36 34.749980 -116.500020 208 16055ft 264kts
29-Jun-16 14:37 34.686526 -116.544719 211 16058ft 264kts
29-Jun-16 14:38 34.624061 -116.590938 211 15876ft 263kts
29-Jun-16 14:39 34.561971 -116.636805 211 15281ft 261kts
29-Jun-16 14:40 34.502549 -116.680722 211 14629ft 258kts
29-Jun-16 14:41 34.442220 -116.725145 212 13523ft 255kts
29-Jun-16 14:42 34.382544 -116.768986 212 13068ft 245kts
29-Jun-16 14:43 34.318792 -116.774363 155 13069ft 241kts
29-Jun-16 14:44 34.271147 -116.717364 131 13070ft 249kts
29-Jun-16 14:45 34.225129 -116.649934 119 13045ft 269kts
29-Jun-16 14:46 34.233494 -116.573289 15 12628ft 245kts
29-Jun-16 14:47 34.266587 -116.629292 266 11618ft 262kts
29-Jun-16 14:48 34.264705 -116.701800 267 10317ft 247kts
29-Jun-16 14:49 34.264077 -116.775191 269 8620ft 153kts
29-Jun-16 14:50 34.263887 -116.818875 268 7556ft 108kts
29-Jun-16 14:51 34.263792 -116.848619 269 6759ft 92kts
29-Jun-16 14:52 34.264429 -116.857189 176 6752ft 0kts
29-Jun-16 14:53 34.264429 -116.857189 176 6752ft 0kts
29-Jun-16 14:54 34.264429 -116.857189 176 6752ft 0kts
29-Jun-16 14:55 34.263749 -116.865534 89 6760ft 0kts

Navigation Log

Ident Type
Flight plan parsing failed, navigation log unavailable